Time;durP1;ratioP1;P1;durP2;ratioP2;P2;SDS_P1;SDS_P2;PMS_P1;PMS_P2;Temp;Humidity;BMP_temperature;BMP_pressure;BME280_temperature;BME280_humidity;BME280_pressure;Samples;Min_cycle;Max_cycle;Signal;HPM_P1;HPM_P2
2023/02/23 00:01:43;;;;;;;31.45;17.48;;;22.70;81.20;;;;;;1853537;77;21126;-90
2023/02/23 00:04:14;;;;;;;32.13;18.37;;;22.70;81.20;;;;;;1878648;75;21193;-89
2023/02/23 00:06:47;;;;;;;31.27;17.85;;;22.70;81.10;;;;;;1866921;75;21064;-86
2023/02/23 00:09:24;;;;;;;23.02;16.37;;;22.70;81.50;;;;;;1865892;76;21134;-88
2023/02/23 00:11:58;;;;;;;25.82;16.25;;;22.70;81.70;;;;;;1842192;78;21095;-89
2023/02/23 00:14:30;;;;;;;26.07;16.52;;;22.70;81.60;;;;;;1859054;76;21128;-88
2023/02/23 00:17:17;;;;;;;25.08;15.58;;;22.70;81.90;;;;;;1868363;75;21084;-89
2023/02/23 00:20:04;;;;;;;;;;;;;;;;;;;;;
2023/02/23 00:22:42;;;;;;;32.38;17.87;;;22.70;82.30;;;;;;1846611;75;21214;-89
2023/02/23 00:25:14;;;;;;;25.82;14.93;;;22.70;82.20;;;;;;1858371;76;21397;-89
2023/02/23 00:27:54;;;;;;;22.30;13.32;;;22.80;82.30;;;;;;1888837;76;21512;-90
2023/02/23 00:30:26;;;;;;;25.62;14.80;;;22.80;82.40;;;;;;1857825;75;21547;-89
2023/02/23 00:32:58;;;;;;;27.98;14.05;;;22.80;82.40;;;;;;1848976;76;21145;-88
2023/02/23 00:35:29;;;;;;;24.87;13.03;;;22.80;82.40;;;;;;1851074;77;21095;-81
2023/02/23 00:38:00;;;;;;;26.10;13.15;;;22.80;82.40;;;;;;1769166;81;21111;-83
2023/02/23 00:40:35;;;;;;;20.72;13.08;;;22.90;82.10;;;;;;1792568;78;21162;-84
2023/02/23 00:43:06;;;;;;;22.60;12.65;;;22.90;82.00;;;;;;1796815;78;21157;-84
2023/02/23 00:45:37;;;;;;;21.30;13.22;;;23.00;81.70;;;;;;1838596;76;21237;-83
2023/02/23 00:48:09;;;;;;;21.48;12.85;;;22.90;81.80;;;;;;1846140;76;21110;-83
2023/02/23 00:50:40;;;;;;;24.47;15.65;;;23.00;81.50;;;;;;1833547;76;21285;-77
2023/02/23 00:53:11;;;;;;;25.35;14.65;;;23.00;81.80;;;;;;1838337;76;21178;-75
2023/02/23 00:55:42;;;;;;;22.22;12.95;;;23.00;81.70;;;;;;1822573;77;21214;-75
2023/02/23 00:58:14;;;;;;;23.18;13.08;;;23.00;81.50;;;;;;1822512;77;21171;-76
2023/02/23 01:00:47;;;;;;;25.35;13.15;;;23.10;81.60;;;;;;1821516;77;21206;-77
2023/02/23 01:03:18;;;;;;;20.55;11.80;;;23.10;81.30;;;;;;1823394;77;21205;-73
2023/02/23 01:05:49;;;;;;;21.25;12.65;;;23.10;81.50;;;;;;1829028;77;21210;-75
2023/02/23 01:12:06;;;;;;;25.85;13.58;;;23.10;81.10;;;;;;1833889;77;21192;-78
2023/02/23 01:14:36;;;;;;;19.62;12.68;;;23.20;81.30;;;;;;1828716;77;22023;-74
2023/02/23 01:17:08;;;;;;;24.70;13.35;;;23.30;81.10;;;;;;1824890;77;21162;-73
2023/02/23 01:19:40;;;;;;;24.18;13.18;;;23.40;80.90;;;;;;1838936;77;21393;-74
2023/02/23 01:22:17;;;;;;;22.65;12.63;;;23.40;80.70;;;;;;1847394;75;21266;-76
2023/02/23 01:24:48;;;;;;;21.00;11.83;;;23.40;80.80;;;;;;1931088;73;21177;-74
2023/02/23 01:27:20;;;;;;;30.30;14.15;;;23.40;80.60;;;;;;1932910;73;21112;-75
2023/02/23 01:29:51;;;;;;;23.00;11.90;;;23.40;81.00;;;;;;1942772;73;21733;-75
2023/02/23 01:32:29;;;;;;;20.77;12.25;;;23.50;80.60;;;;;;1912890;73;21222;-76
2023/02/23 01:34:59;;;;;;;23.80;12.55;;;23.50;80.60;;;;;;1924218;72;21092;-77
2023/02/23 01:37:35;;;;;;;22.85;13.10;;;23.50;80.60;;;;;;1924216;73;21080;-78
2023/02/23 01:40:14;;;;;;;17.62;11.43;;;23.60;80.60;;;;;;1937902;73;21103;-75
2023/02/23 01:42:46;;;;;;;18.85;12.00;;;23.60;79.80;;;;;;1911711;74;21116;-76
2023/02/23 01:45:24;;;;;;;24.65;13.35;;;23.70;80.10;;;;;;1943577;72;21578;-76
2023/02/23 01:48:06;;;;;;;24.10;12.28;;;23.70;79.90;;;;;;1918068;72;21684;-76
2023/02/23 01:50:48;;;;;;;21.95;12.88;;;23.80;79.50;;;;;;1914334;72;21858;-77
2023/02/23 01:53:23;;;;;;;21.20;12.90;;;23.80;79.50;;;;;;1934590;72;21169;-76
2023/02/23 01:56:00;;;;;;;26.70;13.90;;;23.90;79.70;;;;;;1925153;72;21245;-77
2023/02/23 01:58:33;;;;;;;23.98;14.78;;;24.00;79.40;;;;;;1930512;72;21123;-76
2023/02/23 02:01:06;;;;;;;23.30;14.05;;;24.00;79.40;;;;;;1922634;72;21328;-77
2023/02/23 02:03:42;;;;;;;30.72;15.98;;;24.00;79.20;;;;;;1934156;73;21166;-76
2023/02/23 02:06:15;;;;;;;23.57;13.72;;;24.10;79.00;;;;;;1941312;73;21133;-75
2023/02/23 02:08:53;;;;;;;20.97;13.93;;;24.10;79.00;;;;;;1926192;72;21096;-76
2023/02/23 02:11:35;;;;;;;26.12;14.13;;;24.20;78.80;;;;;;1916180;74;21384;-75
2023/02/23 02:14:12;;;;;;;25.27;15.75;;;24.20;78.80;;;;;;1912818;74;21160;-76
2023/02/23 02:17:09;;;;;;;25.35;15.93;;;24.20;78.50;;;;;;1918565;74;21645;-74
2023/02/23 02:20:25;;;;;;;26.20;14.28;;;24.20;78.60;;;;;;1924200;72;21271;-76
2023/02/23 02:23:13;;;;;;;25.80;15.28;;;24.30;78.20;;;;;;1937891;73;21099;-76
2023/02/23 02:25:54;;;;;;;25.00;15.20;;;24.30;78.00;;;;;;1927138;73;21443;-76
2023/02/23 02:28:39;;;;;;;25.27;15.85;;;24.40;78.10;;;;;;1894980;74;21077;-76
2023/02/23 02:34:55;;;;;;;27.55;16.77;;;24.40;78.10;;;;;;1907562;73;21202;-75
2023/02/23 02:37:38;;;;;;;24.40;15.03;;;24.50;78.10;;;;;;1925950;72;21118;-73
2023/02/23 02:40:21;;;;;;;23.62;14.78;;;24.60;77.70;;;;;;1939672;72;21206;-75
2023/02/23 02:46:29;;;;;;;30.37;16.17;;;24.80;77.00;;;;;;1916771;75;21128;-72
2023/02/23 02:49:11;;;;;;;26.48;14.53;;;24.80;76.60;;;;;;1924654;72;21391;-73
2023/02/23 02:51:44;;;;;;;26.25;14.75;;;24.90;76.40;;;;;;1919610;73;21123;-73
2023/02/23 02:54:32;;;;;;;23.75;14.55;;;24.90;76.30;;;;;;1937109;72;21131;-76
2023/02/23 02:57:05;;;;;;;24.82;14.55;;;25.00;75.90;;;;;;1920832;72;21131;-73
2023/02/23 04:18:26;;;;;;;19.10;10.88;;;27.80;66.30;;;;;;1874374;75;21118;-73
2023/02/23 04:20:56;;;;;;;;;;;27.90;67.10;;;;;;1875662;75;21156;-74
2023/02/23 04:23:29;;;;;;;15.90;11.03;;;28.00;67.40;;;;;;1872389;75;20175;-73
2023/02/23 04:26:00;;;;;;;20.25;11.10;;;28.10;66.50;;;;;;1836514;76;21903;-72
2023/02/23 04:28:32;;;;;;;15.05;10.03;;;28.20;66.20;;;;;;1802950;77;21171;-73
2023/02/23 04:31:03;;;;;;;18.52;10.65;;;28.40;65.70;;;;;;1816613;77;21737;-73
2023/02/23 04:33:35;;;;;;;16.17;10.18;;;28.40;66.20;;;;;;1844596;76;21258;-74
2023/02/23 04:36:08;;;;;;;19.62;11.78;;;28.50;65.00;;;;;;1802597;77;21222;-74
2023/02/23 04:38:39;;;;;;;16.73;9.28;;;28.60;64.00;;;;;;1834536;76;21137;-74
2023/02/23 04:41:11;;;;;;;16.93;10.60;;;28.70;63.10;;;;;;1811030;77;21162;-73
2023/02/23 04:43:42;;;;;;;19.42;11.53;;;28.80;63.30;;;;;;1846637;76;21066;-74
2023/02/23 04:46:14;;;;;;;17.00;11.05;;;28.80;63.60;;;;;;1835735;76;21450;-75
2023/02/23 04:48:48;;;;;;;18.50;11.15;;;28.90;62.90;;;;;;1840562;76;21163;-73
2023/02/23 04:51:20;;;;;;;18.15;11.80;;;29.00;63.20;;;;;;1810380;79;21965;-74
2023/02/23 04:53:51;;;;;;;19.00;11.83;;;29.00;63.20;;;;;;1815220;77;21473;-73
2023/02/23 04:56:22;;;;;;;19.92;11.63;;;29.10;62.80;;;;;;1791819;77;21179;-74
2023/02/23 04:58:55;;;;;;;21.05;10.68;;;29.20;62.30;;;;;;1830379;76;21172;-73
2023/02/23 05:01:31;;;;;;;19.57;11.18;;;29.30;62.40;;;;;;1847075;75;21138;-75
2023/02/23 05:04:02;;;;;;;22.32;12.35;;;29.30;63.60;;;;;;1847346;76;21199;-72
2023/02/23 05:06:39;;;;;;;23.18;11.95;;;29.30;62.60;;;;;;1830687;76;21128;-75
2023/02/23 05:09:14;;;;;;;22.98;12.10;;;29.40;63.00;;;;;;1865039;75;21137;-74
2023/02/23 05:11:46;;;;;;;19.32;11.10;;;29.40;65.20;;;;;;1868353;75;21798;-75
2023/02/23 05:14:18;;;;;;;15.88;10.82;;;29.40;62.20;;;;;;1871683;75;21231;-74
2023/02/23 05:16:49;;;;;;;20.08;11.18;;;29.50;60.80;;;;;;1864779;75;21123;-76
2023/02/23 05:19:21;;;;;;;20.05;11.55;;;29.60;61.00;;;;;;1864843;75;21153;-73
2023/02/23 05:21:55;;;;;;;17.48;10.63;;;29.60;59.30;;;;;;1829091;76;21142;-75
2023/02/23 05:24:29;;;;;;;21.48;10.72;;;29.80;59.80;;;;;;1864300;76;21154;-73
2023/02/23 05:27:04;;;;;;;15.68;10.43;;;29.90;65.00;;;;;;1849704;77;21475;-74
2023/02/23 05:29:36;;;;;;;22.27;11.22;;;30.00;61.40;;;;;;1841169;76;21387;-74
2023/02/23 05:32:07;;;;;;;15.00;11.33;;;30.00;59.90;;;;;;1848507;76;21093;-74
2023/02/23 05:34:38;;;;;;;15.05;10.43;;;30.00;58.90;;;;;;1843111;76;21794;-74
2023/02/23 05:37:09;;;;;;;16.10;10.32;;;30.00;59.10;;;;;;1817865;77;21151;-74
2023/02/23 05:39:41;;;;;;;18.02;11.18;;;30.10;59.20;;;;;;1820811;77;21535;-76
2023/02/23 05:42:15;;;;;;;15.63;10.60;;;30.20;59.20;;;;;;1822002;77;21790;-74
2023/02/23 05:44:47;;;;;;;17.20;10.90;;;30.20;59.40;;;;;;1816198;77;21112;-73
2023/02/23 05:47:18;;;;;;;15.45;10.35;;;30.30;57.50;;;;;;1817138;77;21175;-75
2023/02/23 05:49:51;;;;;;;16.05;10.35;;;30.40;57.70;;;;;;1826618;77;21166;-77
2023/02/23 05:52:23;;;;;;;18.52;10.25;;;30.50;57.00;;;;;;1817158;77;21210;-74
2023/02/23 05:54:54;;;;;;;13.50;10.15;;;30.50;56.30;;;;;;1845640;76;21093;-73
2023/02/23 06:00:53;;;;;;;15.78;10.68;;;;;;;;;;1877963;76;21152;-82
2023/02/23 06:03:25;;;;;;;17.23;10.08;;;30.60;54.90;;;;;;1885105;75;21135;-81
2023/02/23 06:05:58;;;;;;;17.00;11.43;;;30.60;55.80;;;;;;1889664;76;21103;-82
2023/02/23 06:08:28;;;;;;;15.25;10.93;;;30.70;56.00;;;;;;1875007;76;21111;-82
2023/02/23 06:11:00;;;;;;;14.55;11.33;;;30.70;56.20;;;;;;1875860;76;21229;-82
2023/02/23 06:13:31;;;;;;;19.87;12.03;;;30.70;56.30;;;;;;1873868;76;21435;-82
2023/02/23 06:16:02;;;;;;;18.95;13.48;;;30.80;55.30;;;;;;1843345;78;21181;-82
2023/02/23 06:18:33;;;;;;;15.80;11.08;;;30.80;55.40;;;;;;1846889;76;21202;-82
2023/02/23 06:21:04;;;;;;;19.60;11.80;;;30.80;55.50;;;;;;1875565;76;21156;-80
2023/02/23 06:23:36;;;;;;;17.82;11.93;;;30.90;56.00;;;;;;1841062;78;21160;-81
2023/02/23 06:26:07;;;;;;;19.90;11.68;;;30.90;55.10;;;;;;1841192;77;21131;-84
2023/02/23 06:28:38;;;;;;;22.42;12.18;;;30.90;55.20;;;;;;1818649;79;21197;-80
2023/02/23 06:31:14;;;;;;;18.50;11.22;;;30.90;54.50;;;;;;1800862;78;21220;-81
2023/02/23 06:33:42;;;;;;;16.00;11.25;;;30.90;55.40;;;;;;1817250;77;21112;-82
2023/02/23 06:36:13;;;;;;;17.07;11.40;;;31.00;55.00;;;;;;1843253;78;21147;-82
2023/02/23 06:38:44;;;;;;;22.02;11.80;;;30.90;54.70;;;;;;1825618;76;21154;-82
2023/02/23 06:41:16;;;;;;;17.02;11.30;;;30.90;54.80;;;;;;1811851;79;21308;-82
2023/02/23 06:43:49;;;;;;;14.28;10.63;;;30.90;55.10;;;;;;1840453;76;21151;-81
2023/02/23 06:46:24;;;;;;;16.95;10.88;;;30.90;54.60;;;;;;1886282;75;21198;-81
2023/02/23 06:48:58;;;;;;;14.98;11.22;;;30.90;54.10;;;;;;1843021;77;21399;-81
2023/02/23 06:51:29;;;;;;;19.25;12.20;;;30.90;54.20;;;;;;1837751;76;21159;-82
2023/02/23 06:54:00;;;;;;;19.05;11.18;;;30.90;54.50;;;;;;1809706;78;21198;-82
2023/02/23 06:56:31;;;;;;;18.92;10.68;;;30.90;54.10;;;;;;1816164;79;21101;-83
2023/02/23 06:59:06;;;;;;;15.78;11.93;;;30.90;54.20;;;;;;1842899;76;21147;-74
2023/02/23 07:01:37;;;;;;;16.60;11.50;;;30.90;53.70;;;;;;1832835;78;21191;-73
2023/02/23 07:04:08;;;;;;;13.93;10.53;;;31.00;53.80;;;;;;1832700;76;21133;-73
2023/02/23 07:06:39;;;;;;;16.27;10.93;;;31.00;54.80;;;;;;1809852;77;21204;-74
2023/02/23 07:09:10;;;;;;;18.62;10.63;;;31.00;54.00;;;;;;1800959;77;21183;-74
2023/02/23 07:11:43;;;;;;;16.95;11.50;;;30.90;54.10;;;;;;1848175;77;21161;-72
2023/02/23 07:14:15;;;;;;;16.07;11.22;;;31.00;54.30;;;;;;1831395;77;21158;-74
2023/02/23 07:16:48;;;;;;;16.55;11.00;;;31.00;54.20;;;;;;1877388;75;21479;-74
2023/02/23 07:19:19;;;;;;;14.40;10.43;;;31.00;54.40;;;;;;1837582;76;21112;-73
2023/02/23 07:21:52;;;;;;;14.25;10.48;;;31.00;53.10;;;;;;1813102;77;21139;-73
2023/02/23 07:24:27;;;;;;;16.15;10.88;;;31.00;53.50;;;;;;1847761;76;21178;-74
2023/02/23 07:26:58;;;;;;;14.73;10.90;;;31.00;53.90;;;;;;1863248;76;21259;-74
2023/02/23 07:29:29;;;;;;;18.48;11.18;;;31.00;53.90;;;;;;1846872;76;21164;-72
2023/02/23 07:32:01;;;;;;;14.55;10.80;;;31.00;54.00;;;;;;1885147;74;21537;-73
2023/02/23 07:34:32;;;;;;;18.40;11.25;;;30.90;53.70;;;;;;1845733;76;21120;-73
2023/02/23 07:37:03;;;;;;;15.38;11.03;;;30.90;53.20;;;;;;1905649;75;21189;-75
2023/02/23 07:39:37;;;;;;;16.93;11.05;;;30.90;53.70;;;;;;1891070;74;21123;-73
2023/02/23 07:42:10;;;;;;;17.05;11.18;;;30.90;54.00;;;;;;1894754;75;21134;-74
2023/02/23 07:44:45;;;;;;;16.02;10.90;;;30.90;54.20;;;;;;1848769;76;21793;-73
2023/02/23 07:47:16;;;;;;;14.68;10.68;;;30.90;54.60;;;;;;1847027;76;21192;-74
2023/02/23 07:49:47;;;;;;;17.77;11.95;;;30.90;53.80;;;;;;1886638;74;21142;-73
2023/02/23 07:52:19;;;;;;;16.93;10.72;;;30.90;54.60;;;;;;1844198;76;21675;-75
2023/02/23 07:54:51;;;;;;;16.25;11.35;;;30.80;53.80;;;;;;1845385;76;21229;-72
2023/02/23 07:57:23;;;;;;;17.57;12.03;;;30.80;53.70;;;;;;1813076;77;21885;-72
2023/02/23 07:59:54;;;;;;;22.40;12.20;;;30.80;54.00;;;;;;1807145;77;21217;-74
2023/02/23 08:02:31;;;;;;;15.25;11.10;;;30.80;54.40;;;;;;1816935;77;21171;-73
2023/02/23 08:05:02;;;;;;;16.37;11.30;;;30.80;53.30;;;;;;1814858;77;21205;-75
2023/02/23 08:07:34;;;;;;;14.70;11.57;;;30.80;53.50;;;;;;1819374;77;21162;-72
2023/02/23 08:10:06;;;;;;;15.30;11.28;;;30.70;53.50;;;;;;1857277;76;21577;-74
2023/02/23 08:12:38;;;;;;;17.12;12.75;;;30.70;53.20;;;;;;1850512;76;21158;-73
2023/02/23 08:15:10;;;;;;;17.32;12.50;;;30.70;53.80;;;;;;1842515;76;21126;-76
2023/02/23 08:17:42;;;;;;;14.55;11.45;;;30.70;53.30;;;;;;1854162;76;21086;-76
2023/02/23 08:20:13;;;;;;;19.35;12.53;;;30.70;53.30;;;;;;1819805;77;21202;-76
2023/02/23 08:22:54;;;;;;;13.45;12.00;;;30.70;53.60;;;;;;1824672;77;21197;-75
2023/02/23 08:25:31;;;;;;;15.23;11.73;;;30.70;53.90;;;;;;1818864;77;21301;-77
2023/02/23 08:28:05;;;;;;;19.17;12.47;;;30.80;53.40;;;;;;1821130;77;21163;-77
2023/02/23 08:30:32;;;;;;;14.20;11.73;;;30.70;53.40;;;;;;1840063;78;21554;-77
2023/02/23 08:33:04;;;;;;;16.32;11.20;;;30.70;53.20;;;;;;1832928;76;21456;-76
2023/02/23 08:35:40;;;;;;;16.40;12.20;;;30.70;53.90;;;;;;1838277;76;21449;-78
2023/02/23 08:38:10;;;;;;;18.57;11.97;;;30.70;53.70;;;;;;1847206;76;21089;-78
2023/02/23 08:40:42;;;;;;;20.02;12.68;;;30.70;53.50;;;;;;1847937;78;21117;-78
2023/02/23 08:43:13;;;;;;;17.82;12.78;;;30.70;53.20;;;;;;1835165;77;21145;-75
2023/02/23 08:45:45;;;;;;;18.23;12.55;;;30.70;53.50;;;;;;1820655;77;21283;-77
2023/02/23 08:48:17;;;;;;;18.75;13.28;;;30.70;53.50;;;;;;1831774;76;21196;-73
2023/02/23 08:51:01;;;;;;;17.75;12.60;;;30.60;53.90;;;;;;1791002;79;21887;-76
2023/02/23 08:53:33;;;;;;;18.77;12.63;;;30.60;53.80;;;;;;1814006;78;21241;-78
2023/02/23 08:56:06;;;;;;;15.18;12.30;;;30.60;54.50;;;;;;1860863;76;21492;-77
2023/02/23 08:58:38;;;;;;;15.03;12.05;;;30.60;53.80;;;;;;1831388;77;21086;-76
2023/02/23 09:01:11;;;;;;;17.23;12.65;;;30.60;53.80;;;;;;1814649;78;21332;-76
2023/02/23 09:03:42;;;;;;;17.27;12.80;;;30.50;53.70;;;;;;1826106;77;21470;-76
2023/02/23 09:06:16;;;;;;;18.20;12.37;;;30.50;54.30;;;;;;1825646;78;21146;-75
2023/02/23 09:08:48;;;;;;;17.90;12.73;;;30.60;53.70;;;;;;1807219;78;21095;-76
2023/02/23 09:11:19;;;;;;;15.95;12.45;;;30.60;53.70;;;;;;1810623;79;21547;-77
2023/02/23 09:13:51;;;;;;;17.87;12.70;;;30.60;53.10;;;;;;1807832;78;21153;-77
2023/02/23 09:16:22;;;;;;;15.80;12.78;;;30.60;54.00;;;;;;1820844;78;21185;-75
2023/02/23 09:18:54;;;;;;;17.57;13.05;;;30.60;53.20;;;;;;1825417;78;21135;-77
2023/02/23 09:21:28;;;;;;;18.55;12.75;;;30.60;53.60;;;;;;1802897;79;21143;-77
2023/02/23 09:24:00;;;;;;;18.98;12.58;;;30.60;53.90;;;;;;1836636;77;21207;-75
2023/02/23 09:26:34;;;;;;;21.10;13.70;;;30.60;53.70;;;;;;1842909;77;21361;-77
2023/02/23 09:29:15;;;;;;;16.75;12.80;;;30.50;53.80;;;;;;1859301;75;21085;-77
2023/02/23 09:31:46;;;;;;;16.48;12.53;;;30.50;53.70;;;;;;1875651;75;21121;-76
2023/02/23 09:34:19;;;;;;;18.15;11.88;;;30.50;53.80;;;;;;1868868;75;21911;-75
2023/02/23 09:36:50;;;;;;;20.92;13.80;;;30.40;54.10;;;;;;1865059;75;21641;-76
2023/02/23 09:39:21;;;;;;;14.98;12.15;;;30.40;53.80;;;;;;1836076;77;21091;-75
2023/02/23 09:42:12;;;;;;;17.75;12.90;;;30.40;53.80;;;;;;1834013;76;21362;-76
2023/02/23 09:45:05;;;;;;;16.23;13.32;;;30.30;54.10;;;;;;1857813;75;21208;-74
2023/02/23 09:47:50;;;;;;;19.62;13.22;;;30.30;53.70;;;;;;1709125;83;21324;-75
2023/02/23 09:50:25;;;;;;;16.42;12.70;;;30.30;53.80;;;;;;1814317;77;22143;-76
2023/02/23 09:53:01;;;;;;;17.90;13.00;;;30.30;54.30;;;;;;1830791;77;21085;-77
2023/02/23 09:55:35;;;;;;;18.37;13.13;;;30.30;54.40;;;;;;1841107;77;21094;-75
2023/02/23 09:58:11;;;;;;;16.17;13.13;;;30.20;54.60;;;;;;1865800;75;21138;-75
2023/02/23 10:00:46;;;;;;;20.77;13.93;;;30.20;54.50;;;;;;1899966;74;21200;-74
2023/02/23 10:03:34;;;;;;;15.55;12.13;;;30.20;54.70;;;;;;1911759;74;22243;-74
2023/02/23 10:06:08;;;;;;;20.60;12.88;;;30.10;54.80;;;;;;1910441;74;21369;-75
2023/02/23 10:09:08;;;;;;;22.00;12.50;;;30.10;55.00;;;;;;1898413;74;21198;-75
2023/02/23 10:12:02;;;;;;;19.23;12.68;;;30.10;55.20;;;;;;1874129;75;21618;-78
2023/02/23 10:14:51;;;;;;;18.02;12.95;;;30.10;55.30;;;;;;1873334;75;21169;-76
2023/02/23 10:17:26;;;;;;;16.93;13.10;;;30.00;55.30;;;;;;1834031;77;21088;-74
2023/02/23 10:20:06;;;;;;;19.27;12.75;;;30.00;55.40;;;;;;1833132;77;21938;-74
2023/02/23 10:22:40;;;;;;;21.87;13.50;;;30.00;55.50;;;;;;1869289;77;21067;-74
2023/02/23 10:25:21;;;;;;;21.75;13.53;;;29.90;55.70;;;;;;1866073;75;21208;-75
2023/02/23 10:27:57;;;;;;;19.60;12.85;;;29.90;55.70;;;;;;1853335;76;21520;-74
2023/02/23 10:30:35;;;;;;;18.55;12.93;;;29.80;55.60;;;;;;1844365;76;21136;-74
2023/02/23 10:33:18;;;;;;;18.57;13.75;;;29.80;55.60;;;;;;1849733;76;21560;-74
2023/02/23 10:35:49;;;;;;;20.45;13.40;;;29.80;55.90;;;;;;1856846;76;21415;-73
2023/02/23 10:38:21;;;;;;;18.77;13.55;;;29.80;56.00;;;;;;1846280;76;21164;-75
2023/02/23 10:40:58;;;;;;;19.77;13.78;;;29.70;55.90;;;;;;1819070;79;21070;-74
2023/02/23 10:43:29;;;;;;;20.50;13.60;;;29.70;56.10;;;;;;1852768;76;21147;-75
2023/02/23 10:46:00;;;;;;;19.15;13.93;;;29.70;55.90;;;;;;1888577;74;21158;-75
2023/02/23 10:48:41;;;;;;;29.18;18.98;;;29.70;56.10;;;;;;1875652;76;21135;-82
2023/02/23 10:51:23;;;;;;;24.43;16.57;;;29.70;56.20;;;;;;1875346;76;21142;-82
2023/02/23 10:53:55;;;;;;;21.07;14.50;;;29.70;56.30;;;;;;1915310;74;21204;-82
2023/02/23 10:56:33;;;;;;;21.25;16.48;;;29.60;56.20;;;;;;1897931;74;21259;-81
2023/02/23 10:59:00;;;;;;;21.50;14.68;;;29.60;56.30;;;;;;1898343;74;21192;-81
2023/02/23 11:01:40;;;;;;;21.85;13.32;;;29.60;56.40;;;;;;1889177;74;21182;-83
2023/02/23 11:04:33;;;;;;;18.15;13.75;;;29.60;56.30;;;;;;1890321;74;21122;-83
2023/02/23 11:07:10;;;;;;;18.52;14.10;;;29.50;56.30;;;;;;1878561;74;21146;-81
2023/02/23 11:09:42;;;;;;;17.10;13.98;;;29.50;56.40;;;;;;1850560;76;21152;-82
2023/02/23 11:12:28;;;;;;;22.07;14.83;;;29.50;56.40;;;;;;1850609;76;21487;-83
2023/02/23 11:15:01;;;;;;;28.98;16.27;;;29.50;56.60;;;;;;1806847;79;21147;-81
2023/02/23 11:17:40;;;;;;;18.45;14.63;;;29.40;56.80;;;;;;1810424;79;21127;-81
2023/02/23 11:20:34;;;;;;;19.67;13.90;;;29.40;56.80;;;;;;1851933;77;21154;-81
2023/02/23 11:23:11;;;;;;;;;;;29.40;56.80;;;;;;1823179;77;21139;-81
2023/02/23 11:25:48;;;;;;;22.32;14.43;;;29.40;57.40;;;;;;1851188;77;20417;-81
2023/02/23 11:28:30;;;;;;;18.75;14.33;;;29.30;57.20;;;;;;1837390;76;21129;-83
2023/02/23 11:31:06;;;;;;;25.30;15.05;;;29.30;57.20;;;;;;1816217;78;21216;-82
2023/02/23 11:33:39;;;;;;;23.10;14.85;;;29.30;57.30;;;;;;1753432;79;21146;-83
2023/02/23 11:36:17;;;;;;;22.40;15.38;;;29.30;57.30;;;;;;1809174;79;21228;-82
2023/02/23 11:38:47;;;;;;;;;;;29.30;59.20;;;;;;1816216;79;21104;-82
2023/02/23 11:41:21;;;;;;;;;;;29.20;58.90;;;;;;1822260;77;20180;-82
2023/02/23 11:43:53;;;;;;;;;;;29.20;58.50;;;;;;1825996;77;20217;-83
2023/02/23 11:46:23;;;;;;;;;;;29.20;58.40;;;;;;1827296;77;20234;-82
2023/02/23 11:48:55;;;;;;;;;;;29.10;58.50;;;;;;1815639;78;20190;-83
2023/02/23 11:51:26;;;;;;;;;;;29.10;58.50;;;;;;1817693;78;20483;-82
2023/02/23 11:53:56;;;;;;;;;;;29.10;58.50;;;;;;1786370;79;20176;-82
2023/02/23 11:56:27;;;;;;;;;;;29.10;58.70;;;;;;1806572;79;20186;-83
2023/02/23 11:58:58;;;;;;;;;;;29.00;58.50;;;;;;1825725;77;20203;-82
2023/02/23 12:01:48;;;;;;;;;;;29.00;58.70;;;;;;1819655;77;20272;-83
2023/02/23 12:04:32;;;;;;;;;;;29.00;58.60;;;;;;1825587;77;20292;-82
2023/02/23 12:07:03;;;;;;;;;;;29.00;58.60;;;;;;1792343;79;20498;-82
2023/02/23 12:09:34;;;;;;;;;;;28.90;58.60;;;;;;1800614;78;20484;-82
2023/02/23 12:12:05;;;;;;;;;;;29.00;58.70;;;;;;1824041;77;20229;-84
2023/02/23 12:14:39;;;;;;;;;;;28.90;58.70;;;;;;1815507;78;20205;-83
2023/02/23 12:17:15;;;;;;;;;;;28.90;58.70;;;;;;1813629;78;20127;-82
2023/02/23 12:19:47;;;;;;;;;;;28.90;58.80;;;;;;1780275;79;20188;-81
2023/02/23 12:22:25;;;;;;;;;;;28.90;59.00;;;;;;1810234;77;20214;-84
2023/02/23 12:25:03;;;;;;;;;;;28.80;59.10;;;;;;1797279;78;20254;-84
2023/02/23 12:27:44;;;;;;;;;;;28.80;59.10;;;;;;1807482;77;20176;-83
2023/02/23 12:30:36;;;;;;;;;;;28.80;59.30;;;;;;1803610;79;20255;-85
2023/02/23 12:33:28;;;;;;;;;;;28.80;59.20;;;;;;1806014;78;20234;-85
2023/02/23 12:36:08;;;;;;;;;;;28.80;59.30;;;;;;1774532;80;20253;-84
2023/02/23 12:38:56;;;;;;;;;;;28.80;59.60;;;;;;1805096;79;20174;-84
2023/02/23 12:41:32;;;;;;;;;;;28.70;59.90;;;;;;1807724;79;20443;-84
2023/02/23 12:44:06;;;;;;;;;;;28.70;60.00;;;;;;1814459;79;20250;-84
2023/02/23 12:46:42;;;;;;;;;;;28.60;60.20;;;;;;1813223;77;20180;-83
2023/02/23 12:49:29;;;;;;;;;;;28.70;60.10;;;;;;1815562;78;20212;-84
2023/02/23 12:52:01;;;;;;;;;;;28.70;60.20;;;;;;1817735;79;20117;-83
2023/02/23 12:54:33;;;;;;;;;;;28.60;60.10;;;;;;1804643;79;20469;-83
2023/02/23 12:57:07;;;;;;;;;;;28.60;60.00;;;;;;1800584;79;20235;-85
2023/02/23 12:59:41;;;;;;;;;;;28.60;59.70;;;;;;1811971;78;20302;-84
2023/02/23 13:02:24;;;;;;;;;;;28.60;59.50;;;;;;1812750;79;20247;-82
2023/02/23 13:04:56;;;;;;;;;;;28.50;59.30;;;;;;1788179;79;20206;-83
2023/02/23 13:07:37;;;;;;;;;;;28.50;59.30;;;;;;1803347;79;20224;-84
2023/02/23 13:10:14;;;;;;;;;;;28.50;59.20;;;;;;1799969;79;20350;-84
2023/02/23 13:13:06;;;;;;;;;;;28.50;59.40;;;;;;1812021;78;20125;-82
2023/02/23 13:15:43;;;;;;;;;;;28.50;59.30;;;;;;1816447;78;20253;-83
2023/02/23 13:18:14;;;;;;;;;;;28.40;59.40;;;;;;1796576;78;20133;-83
2023/02/23 13:20:57;;;;;;;;;;;28.40;59.60;;;;;;1795414;79;20595;-83
2023/02/23 13:23:34;;;;;;;;;;;28.40;59.60;;;;;;1796394;78;20204;-83
2023/02/23 13:26:17;;;;;;;;;;;28.30;59.70;;;;;;1798953;78;20254;-83
2023/02/23 13:28:48;;;;;;;;;;;28.30;59.80;;;;;;1805175;79;20566;-83
2023/02/23 13:31:22;;;;;;;;;;;28.30;60.00;;;;;;1802490;79;20294;-84
2023/02/23 13:33:54;;;;;;;;;;;28.30;60.30;;;;;;1792099;77;20188;-84
2023/02/23 13:36:32;;;;;;;;;;;28.30;60.60;;;;;;1834547;77;20305;-84
2023/02/23 13:39:09;;;;;;;;;;;28.20;61.00;;;;;;1818273;79;20196;-84
2023/02/23 13:41:41;;;;;;;;;;;28.20;61.20;;;;;;1812664;78;20471;-84
2023/02/23 13:44:31;;;;;;;;;;;28.20;61.30;;;;;;1820126;79;20176;-84
2023/02/23 13:47:11;;;;;;;;;;;28.20;61.70;;;;;;1816079;79;20258;-83
2023/02/23 13:49:49;;;;;;;;;;;28.10;61.80;;;;;;1788868;80;20209;-83
2023/02/23 13:52:36;;;;;;;;;;;28.20;62.00;;;;;;1814752;78;20185;-84
2023/02/23 13:55:15;;;;;;;;;;;28.10;62.10;;;;;;1793679;79;20235;-84
2023/02/23 13:57:46;;;;;;;;;;;28.10;62.20;;;;;;1792742;77;20216;-83
2023/02/23 14:00:18;;;;;;;;;;;28.10;62.30;;;;;;1816002;79;20196;-84
2023/02/23 14:03:02;;;;;;;;;;;28.10;62.40;;;;;;1814937;79;20132;-84
2023/02/23 14:06:10;;;;;;;;;;;28.00;62.70;;;;;;1828308;77;20180;-83
2023/02/23 14:08:28;;;;;;;;;;;28.10;62.80;;;;;;1778478;79;20192;-84
2023/02/23 14:11:01;;;;;;;;;;;28.00;62.70;;;;;;1727896;82;20250;-84
2023/02/23 14:13:32;;;;;;;;;;;28.00;63.00;;;;;;1733360;79;20503;-86
2023/02/23 14:16:08;;;;;;;;;;;28.00;63.50;;;;;;1788477;79;20537;-84
2023/02/23 14:18:56;;;;;;;;;;;28.00;65.30;;;;;;1799627;78;20234;-85
2023/02/23 14:21:24;;;;;;;;;;;28.10;66.20;;;;;;1793045;78;20231;-85
2023/02/23 14:24:07;;;;;;;;;;;28.60;68.10;;;;;;1787594;79;20190;-84
2023/02/23 14:26:39;;;;;;;;;;;28.10;64.50;;;;;;1807822;77;20373;-84
2023/02/23 14:29:17;;;;;;;;;;;28.00;64.40;;;;;;1822495;77;20205;-84
2023/02/23 14:31:54;;;;;;;;;;;28.00;64.70;;;;;;1813816;79;20239;-85
2023/02/23 14:34:26;;;;;;;;;;;27.90;65.10;;;;;;1814594;79;20670;-83
2023/02/23 14:36:55;;;;;;;;;;;28.00;65.50;;;;;;1812528;78;20253;-82
2023/02/23 14:39:36;;;;;;;;;;;27.90;66.40;;;;;;1811656;79;20305;-83
2023/02/23 14:42:23;;;;;;;;;;;27.70;63.50;;;;;;1778597;77;20366;-81
2023/02/23 14:45:27;;;;;;;;;;;27.80;64.50;;;;;;1804460;78;20279;-84
2023/02/23 14:48:21;;;;;;;;;;;;;;;;;;;;;
2023/02/23 14:51:00;;;;;;;;;;;27.70;65.50;;;;;;1817964;78;20167;-81
2023/02/23 14:53:33;;;;;;;;;;;27.70;65.90;;;;;;1725134;82;20227;-81
2023/02/23 14:56:22;;;;;;;;;;;27.60;66.60;;;;;;1720047;83;20177;-79
2023/02/23 14:59:15;;;;;;;;;;;27.60;66.80;;;;;;1750968;81;20210;-81
2023/02/23 15:01:48;;;;;;;;;;;27.50;66.60;;;;;;1758744;80;20512;-83
2023/02/23 15:04:26;;;;;;;;;;;27.50;67.40;;;;;;1733882;81;20235;-82
2023/02/23 15:07:08;;;;;;;;;;;27.40;67.20;;;;;;1718713;82;20150;-82
2023/02/23 15:10:05;;;;;;;;;;;;;;;;;;;;;
2023/02/23 15:12:54;;;;;;;;;;;27.30;68.30;;;;;;1763383;80;20205;-81
2023/02/23 15:15:30;;;;;;;;;;;27.20;68.00;;;;;;1768352;80;20138;-82